sensor_id;sensor_type;location;lat;lon;timestamp;pressure;altitude;pressure_sealevel;temperature;humidity
35435;BME280;21556;55.782;37.528;2022-07-01T00:00:27;99777.00;;;20.02;100.00
35435;BME280;21556;55.782;37.528;2022-07-01T00:02:54;99783.84;;;20.14;100.00
35435;BME280;21556;55.782;37.528;2022-07-01T00:05:20;99785.72;;;20.10;100.00
35435;BME280;21556;55.782;37.528;2022-07-01T00:07:47;99788.91;;;20.28;100.00
35435;BME280;21556;55.782;37.528;2022-07-01T00:10:13;99787.50;;;20.10;100.00
35435;BME280;21556;55.782;37.528;2022-07-01T00:12:45;99792.13;;;20.00;100.00
35435;BME280;21556;55.782;37.528;2022-07-01T00:15:13;99788.41;;;20.09;100.00
35435;BME280;21556;55.782;37.528;2022-07-01T00:17:39;99789.41;;;20.03;100.00
35435;BME280;21556;55.782;37.528;2022-07-01T00:20:07;99790.59;;;20.32;100.00
35435;BME280;21556;55.782;37.528;2022-07-01T00:22:36;99798.00;;;20.17;100.00
35435;BME280;21556;55.782;37.528;2022-07-01T00:25:02;99799.72;;;20.18;100.00
35435;BME280;21556;55.782;37.528;2022-07-01T00:27:29;99785.88;;;20.03;100.00
35435;BME280;21556;55.782;37.528;2022-07-01T00:29:55;99788.13;;;20.23;100.00
35435;BME280;21556;55.782;37.528;2022-07-01T00:32:21;99791.03;;;20.10;100.00
35435;BME280;21556;55.782;37.528;2022-07-01T00:34:48;99793.66;;;20.13;100.00
35435;BME280;21556;55.782;37.528;2022-07-01T00:37:14;99789.94;;;20.20;100.00
35435;BME280;21556;55.782;37.528;2022-07-01T00:39:41;99791.84;;;20.15;100.00
35435;BME280;21556;55.782;37.528;2022-07-01T00:42:07;99784.06;;;20.05;100.00
35435;BME280;21556;55.782;37.528;2022-07-01T00:44:36;99781.78;;;19.85;100.00
35435;BME280;21556;55.782;37.528;2022-07-01T00:47:06;99785.00;;;20.02;100.00
35435;BME280;21556;55.782;37.528;2022-07-01T00:49:35;99787.78;;;19.96;100.00
35435;BME280;21556;55.782;37.528;2022-07-01T00:52:01;99783.44;;;19.92;100.00
35435;BME280;21556;55.782;37.528;2022-07-01T00:54:30;99780.22;;;19.76;100.00
35435;BME280;21556;55.782;37.528;2022-07-01T00:56:56;99787.56;;;19.60;100.00
35435;BME280;21556;55.782;37.528;2022-07-01T00:59:22;99792.69;;;19.73;100.00
35435;BME280;21556;55.782;37.528;2022-07-01T01:01:48;99793.72;;;19.64;100.00
35435;BME280;21556;55.782;37.528;2022-07-01T01:04:14;99789.16;;;19.72;100.00
35435;BME280;21556;55.782;37.528;2022-07-01T01:06:40;99804.31;;;19.67;100.00
35435;BME280;21556;55.782;37.528;2022-07-01T01:09:06;99798.28;;;19.56;100.00
35435;BME280;21556;55.782;37.528;2022-07-01T01:11:32;99798.16;;;19.65;100.00
35435;BME280;21556;55.782;37.528;2022-07-01T01:13:59;99797.31;;;19.63;100.00
35435;BME280;21556;55.782;37.528;2022-07-01T01:16:25;99800.69;;;19.73;100.00
35435;BME280;21556;55.782;37.528;2022-07-01T01:18:51;99800.19;;;19.51;100.00
35435;BME280;21556;55.782;37.528;2022-07-01T01:21:18;99807.34;;;19.45;100.00
35435;BME280;21556;55.782;37.528;2022-07-01T01:23:45;99800.22;;;19.47;100.00
35435;BME280;21556;55.782;37.528;2022-07-01T01:26:17;99802.94;;;19.44;100.00
35435;BME280;21556;55.782;37.528;2022-07-01T01:28:43;99810.19;;;19.35;100.00
35435;BME280;21556;55.782;37.528;2022-07-01T01:31:12;99802.06;;;19.44;100.00
35435;BME280;21556;55.782;37.528;2022-07-01T01:33:41;99801.97;;;19.50;100.00
35435;BME280;21556;55.782;37.528;2022-07-01T01:36:07;99812.63;;;19.48;100.00
35435;BME280;21556;55.782;37.528;2022-07-01T01:38:34;99809.13;;;19.46;100.00
35435;BME280;21556;55.782;37.528;2022-07-01T01:41:01;99802.97;;;19.41;100.00
35435;BME280;21556;55.782;37.528;2022-07-01T01:43:28;99806.47;;;19.45;100.00
35435;BME280;21556;55.782;37.528;2022-07-01T01:45:54;99807.44;;;19.41;100.00
35435;BME280;21556;55.782;37.528;2022-07-01T01:48:20;99807.28;;;19.48;100.00
35435;BME280;21556;55.782;37.528;2022-07-01T01:50:46;99823.41;;;19.41;100.00
35435;BME280;21556;55.782;37.528;2022-07-01T01:53:12;99814.59;;;19.37;100.00
35435;BME280;21556;55.782;37.528;2022-07-01T01:55:38;99813.13;;;19.19;100.00
35435;BME280;21556;55.782;37.528;2022-07-01T01:58:04;99811.47;;;19.14;100.00
35435;BME280;21556;55.782;37.528;2022-07-01T02:00:31;99811.50;;;19.11;100.00
35435;BME280;21556;55.782;37.528;2022-07-01T02:02:58;99815.88;;;19.15;100.00
35435;BME280;21556;55.782;37.528;2022-07-01T02:05:23;99823.94;;;19.10;100.00
35435;BME280;21556;55.782;37.528;2022-07-01T02:07:49;99820.44;;;19.07;100.00
35435;BME280;21556;55.782;37.528;2022-07-01T02:10:15;99819.34;;;19.17;100.00
35435;BME280;21556;55.782;37.528;2022-07-01T02:12:42;99826.69;;;19.04;100.00
35435;BME280;21556;55.782;37.528;2022-07-01T02:15:08;99826.78;;;18.96;100.00
35435;BME280;21556;55.782;37.528;2022-07-01T02:17:35;99828.16;;;19.20;100.00
35435;BME280;21556;55.782;37.528;2022-07-01T02:20:00;99828.28;;;19.13;100.00
35435;BME280;21556;55.782;37.528;2022-07-01T02:22:28;99834.66;;;19.03;100.00
35435;BME280;21556;55.782;37.528;2022-07-01T02:24:55;99832.00;;;19.03;100.00
35435;BME280;21556;55.782;37.528;2022-07-01T02:27:22;99839.38;;;18.85;100.00
35435;BME280;21556;55.782;37.528;2022-07-01T02:29:48;99835.06;;;18.78;100.00
35435;BME280;21556;55.782;37.528;2022-07-01T02:32:13;99841.31;;;18.74;100.00
35435;BME280;21556;55.782;37.528;2022-07-01T02:34:40;99837.59;;;18.86;100.00
35435;BME280;21556;55.782;37.528;2022-07-01T02:37:06;99843.00;;;18.81;100.00
35435;BME280;21556;55.782;37.528;2022-07-01T02:39:35;99840.16;;;18.90;100.00
35435;BME280;21556;55.782;37.528;2022-07-01T02:42:02;99851.78;;;18.85;100.00
35435;BME280;21556;55.782;37.528;2022-07-01T02:44:46;99864.97;;;18.91;100.00
35435;BME280;21556;55.782;37.528;2022-07-01T02:47:12;99865.09;;;18.85;100.00
35435;BME280;21556;55.782;37.528;2022-07-01T02:49:38;99865.81;;;18.96;100.00
35435;BME280;21556;55.782;37.528;2022-07-01T02:52:06;99872.03;;;18.93;100.00
35435;BME280;21556;55.782;37.528;2022-07-01T02:54:33;99871.00;;;19.04;100.00
35435;BME280;21556;55.782;37.528;2022-07-01T02:57:01;99880.31;;;18.69;100.00
35435;BME280;21556;55.782;37.528;2022-07-01T02:59:27;99877.50;;;18.83;100.00
35435;BME280;21556;55.782;37.528;2022-07-01T03:01:54;99879.38;;;18.76;100.00
35435;BME280;21556;55.782;37.528;2022-07-01T03:04:21;99880.19;;;18.81;100.00
35435;BME280;21556;55.782;37.528;2022-07-01T03:06:47;99889.81;;;18.90;100.00
35435;BME280;21556;55.782;37.528;2022-07-01T03:09:13;99882.91;;;18.76;100.00
35435;BME280;21556;55.782;37.528;2022-07-01T03:11:38;99893.38;;;18.87;100.00
35435;BME280;21556;55.782;37.528;2022-07-01T03:14:04;99894.28;;;18.86;100.00
35435;BME280;21556;55.782;37.528;2022-07-01T03:16:30;99897.75;;;18.93;100.00
35435;BME280;21556;55.782;37.528;2022-07-01T03:18:56;99902.38;;;18.79;100.00
35435;BME280;21556;55.782;37.528;2022-07-01T03:21:23;99891.81;;;18.72;100.00
35435;BME280;21556;55.782;37.528;2022-07-01T03:23:49;99897.09;;;18.75;100.00
35435;BME280;21556;55.782;37.528;2022-07-01T03:26:14;99901.38;;;18.86;100.00
35435;BME280;21556;55.782;37.528;2022-07-01T03:28:40;99897.81;;;18.88;100.00
35435;BME280;21556;55.782;37.528;2022-07-01T03:31:06;99892.66;;;18.78;100.00
35435;BME280;21556;55.782;37.528;2022-07-01T03:33:32;99896.97;;;18.83;100.00
35435;BME280;21556;55.782;37.528;2022-07-01T03:35:59;99900.28;;;18.99;92.78
35435;BME280;21556;55.782;37.528;2022-07-01T03:38:24;99901.16;;;19.01;93.15
35435;BME280;21556;55.782;37.528;2022-07-01T03:40:52;99913.69;;;18.93;97.44
35435;BME280;21556;55.782;37.528;2022-07-01T03:43:17;99906.56;;;18.95;98.20
35435;BME280;21556;55.782;37.528;2022-07-01T03:45:43;99909.06;;;19.06;96.21
35435;BME280;21556;55.782;37.528;2022-07-01T03:48:09;99912.50;;;19.14;94.12
35435;BME280;21556;55.782;37.528;2022-07-01T03:50:36;99914.53;;;18.96;89.24
35435;BME280;21556;55.782;37.528;2022-07-01T03:53:02;99919.84;;;18.96;85.90
35435;BME280;21556;55.782;37.528;2022-07-01T03:55:46;99917.06;;;19.04;86.44
35435;BME280;21556;55.782;37.528;2022-07-01T03:58:13;99920.47;;;19.14;82.78
35435;BME280;21556;55.782;37.528;2022-07-01T04:00:39;99907.78;;;18.66;85.61
35435;BME280;21556;55.782;37.528;2022-07-01T04:03:06;99917.22;;;18.93;82.27
35435;BME280;21556;55.782;37.528;2022-07-01T04:05:33;99919.03;;;18.90;86.75
35435;BME280;21556;55.782;37.528;2022-07-01T04:08:01;99927.94;;;18.89;83.97
35435;BME280;21556;55.782;37.528;2022-07-01T04:10:29;99930.47;;;18.95;85.93
35435;BME280;21556;55.782;37.528;2022-07-01T04:12:55;99931.19;;;19.08;84.48
35435;BME280;21556;55.782;37.528;2022-07-01T04:15:21;99933.88;;;19.08;82.87
35435;BME280;21556;55.782;37.528;2022-07-01T04:17:47;99944.47;;;19.09;81.95
35435;BME280;21556;55.782;37.528;2022-07-01T04:20:13;99934.53;;;19.20;78.30
35435;BME280;21556;55.782;37.528;2022-07-01T04:22:39;99934.75;;;19.08;81.89
35435;BME280;21556;55.782;37.528;2022-07-01T04:25:06;99941.72;;;19.15;79.87
35435;BME280;21556;55.782;37.528;2022-07-01T04:27:33;99942.44;;;19.27;77.91
35435;BME280;21556;55.782;37.528;2022-07-01T04:30:00;99943.06;;;19.44;77.23
35435;BME280;21556;55.782;37.528;2022-07-01T04:32:30;99944.06;;;19.35;75.47
35435;BME280;21556;55.782;37.528;2022-07-01T04:34:57;99944.06;;;19.35;70.28
35435;BME280;21556;55.782;37.528;2022-07-01T04:37:23;99950.13;;;19.45;67.27
35435;BME280;21556;55.782;37.528;2022-07-01T04:39:50;99951.22;;;19.32;69.04
35435;BME280;21556;55.782;37.528;2022-07-01T04:42:15;99946.72;;;19.37;69.00
35435;BME280;21556;55.782;37.528;2022-07-01T04:44:46;99950.66;;;19.11;67.28
35435;BME280;21556;55.782;37.528;2022-07-01T04:47:14;99947.91;;;19.16;65.65
35435;BME280;21556;55.782;37.528;2022-07-01T04:49:40;99955.97;;;19.10;64.40
35435;BME280;21556;55.782;37.528;2022-07-01T04:52:06;99960.22;;;19.24;63.02
35435;BME280;21556;55.782;37.528;2022-07-01T04:54:33;99962.66;;;19.38;60.68
35435;BME280;21556;55.782;37.528;2022-07-01T04:57:05;99956.28;;;19.48;58.34
35435;BME280;21556;55.782;37.528;2022-07-01T04:59:34;99960.09;;;19.31;60.04
35435;BME280;21556;55.782;37.528;2022-07-01T05:02:02;99957.38;;;19.35;60.85
35435;BME280;21556;55.782;37.528;2022-07-01T05:04:29;99961.69;;;19.42;60.88
35435;BME280;21556;55.782;37.528;2022-07-01T05:06:56;99963.31;;;19.53;59.08
35435;BME280;21556;55.782;37.528;2022-07-01T05:09:21;99959.88;;;19.47;57.69
35435;BME280;21556;55.782;37.528;2022-07-01T05:11:47;99957.13;;;19.54;56.68
35435;BME280;21556;55.782;37.528;2022-07-01T05:14:13;99955.38;;;19.51;59.37
35435;BME280;21556;55.782;37.528;2022-07-01T05:16:39;99967.22;;;19.30;60.17
35435;BME280;21556;55.782;37.528;2022-07-01T05:19:05;99965.22;;;19.44;59.28
35435;BME280;21556;55.782;37.528;2022-07-01T05:21:49;99966.88;;;19.52;59.75
35435;BME280;21556;55.782;37.528;2022-07-01T05:24:21;99956.09;;;19.62;60.08
35435;BME280;21556;55.782;37.528;2022-07-01T05:26:48;99955.94;;;19.71;55.89
35435;BME280;21556;55.782;37.528;2022-07-01T05:29:14;99954.06;;;19.78;54.92
35435;BME280;21556;55.782;37.528;2022-07-01T05:31:41;99951.56;;;19.67;54.38
35435;BME280;21556;55.782;37.528;2022-07-01T05:34:08;99946.28;;;19.66;54.03
35435;BME280;21556;55.782;37.528;2022-07-01T05:36:34;99945.19;;;19.79;54.63
35435;BME280;21556;55.782;37.528;2022-07-01T05:39:01;99946.03;;;19.81;51.09
35435;BME280;21556;55.782;37.528;2022-07-01T05:41:27;99951.53;;;19.72;49.70
35435;BME280;21556;55.782;37.528;2022-07-01T05:43:53;99958.38;;;19.85;49.70
35435;BME280;21556;55.782;37.528;2022-07-01T05:46:21;99949.44;;;19.89;48.79
35435;BME280;21556;55.782;37.528;2022-07-01T05:48:46;99957.41;;;19.89;49.31
35435;BME280;21556;55.782;37.528;2022-07-01T05:51:12;99955.66;;;19.88;50.74
35435;BME280;21556;55.782;37.528;2022-07-01T05:53:38;99956.44;;;19.95;51.08
35435;BME280;21556;55.782;37.528;2022-07-01T05:56:05;99952.66;;;20.07;49.83
35435;BME280;21556;55.782;37.528;2022-07-01T05:58:31;99953.53;;;20.09;50.94
35435;BME280;21556;55.782;37.528;2022-07-01T06:00:57;99956.16;;;20.12;50.55
35435;BME280;21556;55.782;37.528;2022-07-01T06:03:23;99943.97;;;20.43;50.32
35435;BME280;21556;55.782;37.528;2022-07-01T06:05:50;99948.91;;;20.65;47.91
35435;BME280;21556;55.782;37.528;2022-07-01T06:08:16;99945.78;;;20.86;43.85
35435;BME280;21556;55.782;37.528;2022-07-01T06:10:42;99943.75;;;20.99;43.93
35435;BME280;21556;55.782;37.528;2022-07-01T06:13:08;99939.06;;;21.10;45.46
35435;BME280;21556;55.782;37.528;2022-07-01T06:15:34;99947.50;;;21.29;42.70
35435;BME280;21556;55.782;37.528;2022-07-01T06:18:00;99937.88;;;21.61;42.23
35435;BME280;21556;55.782;37.528;2022-07-01T06:20:26;99933.28;;;21.66;40.40
35435;BME280;21556;55.782;37.528;2022-07-01T06:22:52;99940.75;;;21.87;41.04
35435;BME280;21556;55.782;37.528;2022-07-01T06:25:18;99937.75;;;22.00;39.67
35435;BME280;21556;55.782;37.528;2022-07-01T06:27:44;99938.31;;;22.14;40.74
35435;BME280;21556;55.782;37.528;2022-07-01T06:30:13;99934.34;;;22.29;39.25
35435;BME280;21556;55.782;37.528;2022-07-01T06:32:40;99927.56;;;22.48;38.79
35435;BME280;21556;55.782;37.528;2022-07-01T06:35:06;99933.34;;;22.64;36.69
35435;BME280;21556;55.782;37.528;2022-07-01T06:37:33;99931.13;;;22.78;37.28
35435;BME280;21556;55.782;37.528;2022-07-01T06:40:04;99947.00;;;22.85;34.29
35435;BME280;21556;55.782;37.528;2022-07-01T06:42:31;99943.97;;;22.66;33.85
35435;BME280;21556;55.782;37.528;2022-07-01T06:44:58;99950.00;;;22.74;35.04
35435;BME280;21556;55.782;37.528;2022-07-01T06:47:24;99951.28;;;22.61;35.25
35435;BME280;21556;55.782;37.528;2022-07-01T06:49:53;99949.31;;;22.66;34.99
35435;BME280;21556;55.782;37.528;2022-07-01T06:52:22;99955.94;;;22.83;34.16
35435;BME280;21556;55.782;37.528;2022-07-01T06:54:57;99948.50;;;22.95;31.68
35435;BME280;21556;55.782;37.528;2022-07-01T06:57:23;99953.09;;;23.21;31.32
35435;BME280;21556;55.782;37.528;2022-07-01T07:00:11;99958.38;;;23.22;32.91
35435;BME280;21556;55.782;37.528;2022-07-01T07:02:38;99960.88;;;23.28;31.09
35435;BME280;21556;55.782;37.528;2022-07-01T07:05:05;99961.72;;;23.29;29.88
35435;BME280;21556;55.782;37.528;2022-07-01T07:07:31;99952.88;;;23.27;30.60
35435;BME280;21556;55.782;37.528;2022-07-01T07:09:59;99953.53;;;23.35;30.48
35435;BME280;21556;55.782;37.528;2022-07-01T07:12:25;99955.94;;;23.43;30.48
35435;BME280;21556;55.782;37.528;2022-07-01T07:14:51;99955.75;;;23.21;29.38
35435;BME280;21556;55.782;37.528;2022-07-01T07:17:17;99953.72;;;23.57;29.33
35435;BME280;21556;55.782;37.528;2022-07-01T07:19:43;99943.38;;;23.45;29.05
35435;BME280;21556;55.782;37.528;2022-07-01T07:22:09;99953.38;;;23.68;29.25
35435;BME280;21556;55.782;37.528;2022-07-01T07:24:35;99952.63;;;23.35;28.95
35435;BME280;21556;55.782;37.528;2022-07-01T07:27:02;99958.97;;;24.13;28.80
35435;BME280;21556;55.782;37.528;2022-07-01T07:29:29;99945.09;;;24.76;26.74
35435;BME280;21556;55.782;37.528;2022-07-01T07:31:55;99950.28;;;25.04;26.85
35435;BME280;21556;55.782;37.528;2022-07-01T07:34:25;99943.75;;;25.78;26.11
35435;BME280;21556;55.782;37.528;2022-07-01T07:36:51;99947.16;;;26.04;25.65
35435;BME280;21556;55.782;37.528;2022-07-01T07:39:17;99944.84;;;26.76;25.03
35435;BME280;21556;55.782;37.528;2022-07-01T07:41:44;99942.81;;;27.00;24.57
35435;BME280;21556;55.782;37.528;2022-07-01T07:44:10;99946.97;;;27.26;22.90
35435;BME280;21556;55.782;37.528;2022-07-01T07:46:35;99947.84;;;27.27;23.75
35435;BME280;21556;55.782;37.528;2022-07-01T07:49:01;99957.19;;;27.56;21.60
35435;BME280;21556;55.782;37.528;2022-07-01T07:51:28;99950.59;;;27.06;21.55
35435;BME280;21556;55.782;37.528;2022-07-01T07:53:54;99955.75;;;27.11;21.23
35435;BME280;21556;55.782;37.528;2022-07-01T07:56:20;99962.28;;;27.26;21.12
35435;BME280;21556;55.782;37.528;2022-07-01T07:58:46;99947.13;;;27.42;21.25
35435;BME280;21556;55.782;37.528;2022-07-01T08:01:11;99956.19;;;27.58;20.61
35435;BME280;21556;55.782;37.528;2022-07-01T08:03:37;99951.34;;;28.01;20.61
35435;BME280;21556;55.782;37.528;2022-07-01T08:06:03;99958.59;;;28.18;20.56
35435;BME280;21556;55.782;37.528;2022-07-01T08:08:32;99954.78;;;28.22;20.72
35435;BME280;21556;55.782;37.528;2022-07-01T08:10:59;99958.91;;;28.80;20.85
35435;BME280;21556;55.782;37.528;2022-07-01T08:13:28;99953.63;;;28.94;20.33
35435;BME280;21556;55.782;37.528;2022-07-01T08:15:57;99964.97;;;27.81;21.40
35435;BME280;21556;55.782;37.528;2022-07-01T08:18:26;99964.47;;;28.44;20.27
35435;BME280;21556;55.782;37.528;2022-07-01T08:20:52;99957.78;;;28.51;19.82
35435;BME280;21556;55.782;37.528;2022-07-01T08:23:21;99968.25;;;28.57;19.56
35435;BME280;21556;55.782;37.528;2022-07-01T08:25:50;99958.81;;;28.82;19.43
35435;BME280;21556;55.782;37.528;2022-07-01T08:28:18;99957.78;;;29.01;18.43
35435;BME280;21556;55.782;37.528;2022-07-01T08:30:44;99965.97;;;29.47;19.04
35435;BME280;21556;55.782;37.528;2022-07-01T08:33:10;99970.31;;;29.82;18.17
35435;BME280;21556;55.782;37.528;2022-07-01T08:35:36;99964.75;;;29.69;18.72
35435;BME280;21556;55.782;37.528;2022-07-01T08:38:05;99964.13;;;29.32;19.05
35435;BME280;21556;55.782;37.528;2022-07-01T08:40:32;99966.88;;;29.64;18.98
35435;BME280;21556;55.782;37.528;2022-07-01T08:43:00;99959.78;;;30.07;18.28
35435;BME280;21556;55.782;37.528;2022-07-01T08:45:27;99961.03;;;30.02;18.85
35435;BME280;21556;55.782;37.528;2022-07-01T08:47:56;99961.06;;;29.70;19.34
35435;BME280;21556;55.782;37.528;2022-07-01T08:50:30;99967.28;;;29.56;19.24
35435;BME280;21556;55.782;37.528;2022-07-01T08:52:57;99969.28;;;29.68;19.41
35435;BME280;21556;55.782;37.528;2022-07-01T08:55:23;99974.25;;;29.13;19.89
35435;BME280;21556;55.782;37.528;2022-07-01T08:57:49;99976.97;;;29.60;19.41
35435;BME280;21556;55.782;37.528;2022-07-01T09:00:16;99979.38;;;29.96;19.30
35435;BME280;21556;55.782;37.528;2022-07-01T09:05:22;99979.94;;;29.71;18.40
35435;BME280;21556;55.782;37.528;2022-07-01T09:07:49;99979.44;;;29.95;18.27
35435;BME280;21556;55.782;37.528;2022-07-01T09:10:21;99972.75;;;29.86;18.71
35435;BME280;21556;55.782;37.528;2022-07-01T09:12:47;99978.81;;;30.21;19.15
35435;BME280;21556;55.782;37.528;2022-07-01T09:15:21;99963.06;;;30.42;17.71
35435;BME280;21556;55.782;37.528;2022-07-01T09:17:47;99967.00;;;30.96;17.50
35435;BME280;21556;55.782;37.528;2022-07-01T09:20:28;99964.88;;;30.72;17.96
35435;BME280;21556;55.782;37.528;2022-07-01T09:25:33;99978.56;;;29.94;18.66
35435;BME280;21556;55.782;37.528;2022-07-01T09:28:19;99968.84;;;30.06;19.30
35435;BME280;21556;55.782;37.528;2022-07-01T09:30:49;99974.13;;;29.93;19.60
35435;BME280;21556;55.782;37.528;2022-07-01T09:33:34;99979.94;;;30.02;19.63
35435;BME280;21556;55.782;37.528;2022-07-01T09:36:00;99976.00;;;30.23;19.29
35435;BME280;21556;55.782;37.528;2022-07-01T09:38:26;99973.78;;;29.84;19.42
35435;BME280;21556;55.782;37.528;2022-07-01T09:43:26;99985.66;;;30.27;19.03
35435;BME280;21556;55.782;37.528;2022-07-01T09:46:02;99987.59;;;30.09;18.66
35435;BME280;21556;55.782;37.528;2022-07-01T09:50:58;99987.22;;;30.76;18.30
35435;BME280;21556;55.782;37.528;2022-07-01T09:53:25;99989.97;;;30.45;18.45
35435;BME280;21556;55.782;37.528;2022-07-01T09:55:54;99985.81;;;30.40;18.17
35435;BME280;21556;55.782;37.528;2022-07-01T09:58:20;99979.66;;;29.76;18.89
35435;BME280;21556;55.782;37.528;2022-07-01T10:00:47;99988.75;;;30.05;18.73
35435;BME280;21556;55.782;37.528;2022-07-01T10:03:13;99974.47;;;30.33;18.40
35435;BME280;21556;55.782;37.528;2022-07-01T10:06:31;99976.31;;;30.33;17.97
35435;BME280;21556;55.782;37.528;2022-07-01T10:14:16;99986.56;;;29.82;17.76
35435;BME280;21556;55.782;37.528;2022-07-01T10:16:46;99983.03;;;30.56;17.89
35435;BME280;21556;55.782;37.528;2022-07-01T10:21:46;99972.28;;;30.54;17.12
35435;BME280;21556;55.782;37.528;2022-07-01T10:24:19;99971.94;;;30.75;16.46
35435;BME280;21556;55.782;37.528;2022-07-01T10:26:47;99968.66;;;30.25;17.13
35435;BME280;21556;55.782;37.528;2022-07-01T10:29:33;99971.91;;;30.60;16.21
35435;BME280;21556;55.782;37.528;2022-07-01T10:32:08;99988.19;;;30.75;17.40
35435;BME280;21556;55.782;37.528;2022-07-01T10:34:41;99986.16;;;30.04;16.55
35435;BME280;21556;55.782;37.528;2022-07-01T10:37:09;99991.97;;;30.12;16.64
35435;BME280;21556;55.782;37.528;2022-07-01T10:40:08;99989.13;;;30.74;16.24
35435;BME280;21556;55.782;37.528;2022-07-01T10:42:56;99985.75;;;30.70;15.96
35435;BME280;21556;55.782;37.528;2022-07-01T10:45:21;99987.97;;;30.19;16.33
35435;BME280;21556;55.782;37.528;2022-07-01T10:47:47;99987.09;;;30.03;16.37
35435;BME280;21556;55.782;37.528;2022-07-01T10:50:14;99982.44;;;29.43;17.24
35435;BME280;21556;55.782;37.528;2022-07-01T10:53:01;99987.94;;;29.73;16.68
35435;BME280;21556;55.782;37.528;2022-07-01T10:55:38;99984.09;;;29.30;16.92
35435;BME280;21556;55.782;37.528;2022-07-01T10:58:07;99982.03;;;29.35;17.47
35435;BME280;21556;55.782;37.528;2022-07-01T11:00:35;99976.50;;;29.20;17.08
35435;BME280;21556;55.782;37.528;2022-07-01T11:03:05;99982.78;;;29.37;17.23
35435;BME280;21556;55.782;37.528;2022-07-01T11:05:36;99971.81;;;30.17;16.25
35435;BME280;21556;55.782;37.528;2022-07-01T11:08:05;99960.84;;;30.35;15.85
35435;BME280;21556;55.782;37.528;2022-07-01T11:10:39;99973.03;;;30.12;16.80
35435;BME280;21556;55.782;37.528;2022-07-01T11:13:05;99977.31;;;29.70;17.21
35435;BME280;21556;55.782;37.528;2022-07-01T11:15:34;99970.59;;;29.61;17.19
35435;BME280;21556;55.782;37.528;2022-07-01T11:18:01;99966.47;;;28.73;17.81
35435;BME280;21556;55.782;37.528;2022-07-01T11:20:31;99977.81;;;27.76;18.83
35435;BME280;21556;55.782;37.528;2022-07-01T11:22:59;99984.97;;;27.94;18.58
35435;BME280;21556;55.782;37.528;2022-07-01T11:25:24;99992.72;;;27.07;19.08
35435;BME280;21556;55.782;37.528;2022-07-01T11:27:52;99989.06;;;26.89;19.30
35435;BME280;21556;55.782;37.528;2022-07-01T11:30:19;99988.44;;;26.44;20.00
35435;BME280;21556;55.782;37.528;2022-07-01T11:32:51;99988.53;;;26.62;19.25
35435;BME280;21556;55.782;37.528;2022-07-01T11:35:19;99989.88;;;26.10;20.52
35435;BME280;21556;55.782;37.528;2022-07-01T11:38:24;99988.59;;;25.32;21.24
35435;BME280;21556;55.782;37.528;2022-07-01T11:41:19;100005.81;;;25.94;20.72
35435;BME280;21556;55.782;37.528;2022-07-01T11:43:47;100002.66;;;26.05;20.99
35435;BME280;21556;55.782;37.528;2022-07-01T11:46:14;100018.34;;;26.15;20.46
35435;BME280;21556;55.782;37.528;2022-07-01T11:48:42;100015.66;;;25.50;20.39
35435;BME280;21556;55.782;37.528;2022-07-01T11:51:15;100017.47;;;25.49;20.70
35435;BME280;21556;55.782;37.528;2022-07-01T11:53:46;100017.47;;;25.49;20.39
35435;BME280;21556;55.782;37.528;2022-07-01T11:56:12;100011.06;;;25.30;21.14
35435;BME280;21556;55.782;37.528;2022-07-01T11:58:45;100021.34;;;25.42;20.60
35435;BME280;21556;55.782;37.528;2022-07-01T12:01:27;100018.16;;;25.76;20.37
35435;BME280;21556;55.782;37.528;2022-07-01T12:03:56;100020.84;;;25.76;20.20
35435;BME280;21556;55.782;37.528;2022-07-01T12:06:23;100008.41;;;25.05;20.66
35435;BME280;21556;55.782;37.528;2022-07-01T12:08:50;100018.94;;;25.11;21.19
35435;BME280;21556;55.782;37.528;2022-07-01T12:11:18;100021.50;;;25.37;20.84
35435;BME280;21556;55.782;37.528;2022-07-01T12:13:46;100012.28;;;25.21;20.78
35435;BME280;21556;55.782;37.528;2022-07-01T12:16:12;100020.19;;;25.01;21.02
35435;BME280;21556;55.782;37.528;2022-07-01T12:18:39;100018.09;;;24.85;21.80
35435;BME280;21556;55.782;37.528;2022-07-01T12:21:06;100024.75;;;24.98;21.87
35435;BME280;21556;55.782;37.528;2022-07-01T12:23:35;100027.66;;;25.17;21.41
35435;BME280;21556;55.782;37.528;2022-07-01T12:26:03;100022.38;;;25.14;21.26
35435;BME280;21556;55.782;37.528;2022-07-01T12:28:33;100031.03;;;24.97;21.70
35435;BME280;21556;55.782;37.528;2022-07-01T12:31:09;100048.31;;;24.65;21.84
35435;BME280;21556;55.782;37.528;2022-07-01T12:33:44;100047.13;;;24.97;21.24
35435;BME280;21556;55.782;37.528;2022-07-01T12:36:13;100030.91;;;24.77;21.75
35435;BME280;21556;55.782;37.528;2022-07-01T12:38:42;100021.03;;;25.03;20.55
35435;BME280;21556;55.782;37.528;2022-07-01T12:41:31;100025.66;;;24.97;20.50
35435;BME280;21556;55.782;37.528;2022-07-01T12:44:00;100028.31;;;24.99;20.02
35435;BME280;21556;55.782;37.528;2022-07-01T12:46:30;100026.81;;;24.67;20.81
35435;BME280;21556;55.782;37.528;2022-07-01T12:48:58;100033.78;;;24.96;20.05
35435;BME280;21556;55.782;37.528;2022-07-01T12:51:33;100036.81;;;24.87;20.76
35435;BME280;21556;55.782;37.528;2022-07-01T12:53:59;100050.50;;;24.54;21.11
35435;BME280;21556;55.782;37.528;2022-07-01T12:56:27;100046.91;;;24.55;21.49
35435;BME280;21556;55.782;37.528;2022-07-01T12:59:00;100042.31;;;24.59;22.01
35435;BME280;21556;55.782;37.528;2022-07-01T13:01:26;100050.75;;;24.73;21.50
35435;BME280;21556;55.782;37.528;2022-07-01T13:03:52;100050.66;;;24.49;22.30
35435;BME280;21556;55.782;37.528;2022-07-01T13:06:19;100054.34;;;24.72;22.36
35435;BME280;21556;55.782;37.528;2022-07-01T13:08:46;100046.50;;;24.41;21.81